Minerva Alexandra — SYUZ — position and weather

sailwx.info

Track history (hours):
 
Tides and Currents Weather Stations Pressure Air Temp Water Temp Dewpoint Dewpoint Depression Visibility Wind Speed Wind Dir Waves Ship Positions

Minerva Alexandra

Last reported at 2018-Apr-24 05:21 UTC. Time now 2018-Apr-25 21:58 UTC.
Position N 28°57' W 015°14'.

Length 244 m; draft 13.6 m.

Type: Ship (hazmat cat A). MMSI: 237677000.

Date/timePositionNaut miles runAvg speedWind from/ knotsBaromVisibWave heightAir tempDewpointWater temp
2018-Apr-24 05:21N 28°57' W 015°14'410.4
2018-Apr-24 05:00N 28°54' W 015°17'510.4
2018-Apr-24 04:29N 28°50' W 015°22'510.3
2018-Apr-24 04:00N 28°47' W 015°26'510.3
2018-Apr-24 03:30N 28°43' W 015°30'510.3
2018-Apr-24 03:00N 28°40' W 015°34'510.3
2018-Apr-24 02:30N 28°36' W 015°39'510.3
2018-Apr-24 02:00N 28°32' W 015°43'510.3
2018-Apr-24 01:30N 28°29' W 015°46'510.2
2018-Apr-24 01:00N 28°25' W 015°50'510.1
2018-Apr-24 00:30N 28°21' W 015°54'510.1
2018-Apr-23 23:58N 28°17' W 015°58'  
2018-Apr-19 17:11N 10°49' W 018°33'211.3
2018-Apr-19 17:00N 10°47' W 018°32'19711.0
2018-Apr-18 23:03N 07°54' W 016°57'111.4
2018-Apr-18 22:59N 07°53' W 016°57'2311.2
2018-Apr-18 20:57N 07°36' W 016°42'711.0
2018-Apr-18 20:19N 07°30' W 016°38'511.4
2018-Apr-18 19:54N 07°27' W 016°34'411.3
2018-Apr-18 19:30N 07°23' W 016°32'611.4
2018-Apr-18 19:00N 07°19' W 016°28'611.3
2018-Apr-18 18:30N 07°15' W 016°24'611.2
2018-Apr-18 18:00N 07°10' W 016°20'611.1
2018-Apr-18 17:27N 07°06' W 016°16'511.2
2018-Apr-18 17:00N 07°02' W 016°13'611.3
2018-Apr-18 16:30N 06°57' W 016°10'611.3
2018-Apr-18 16:00N 06°53' W 016°06'611.4
2018-Apr-18 15:30N 06°49' W 016°02'611.2
2018-Apr-18 15:00N 06°44' W 015°59'611.1
2018-Apr-18 14:30N 06°40' W 015°55'611.1
2018-Apr-18 14:00N 06°36' W 015°51'510.9
2018-Apr-18 13:30N 06°32' W 015°48'511.0
2018-Apr-18 13:00N 06°28' W 015°44'611.1
2018-Apr-18 12:30N 06°23' W 015°40'511.0
2018-Apr-18 12:00N 06°19' W 015°37'611.0
2018-Apr-18 11:29N 06°15' W 015°33'510.9
2018-Apr-18 11:00N 06°11' W 015°29'610.9
2018-Apr-18 10:27N 06°07' W 015°25'511.0
2018-Apr-18 10:00N 06°04' W 015°22'1010.9
2018-Apr-18 09:07N 05°57' W 015°15'311.1
2018-Apr-18 08:53N 05°55' W 015°13'  
Track history (hours):
 
Tides and Currents Weather Stations Pressure Air Temp Water Temp Dewpoint Dewpoint Depression Visibility Wind Speed Wind Dir Waves Ship Positions

Minerva Alexandra

Last reported at 2018-Apr-24 05:21 UTC. Time now 2018-Apr-25 21:58 UTC.
Position N 28°57' W 015°14'.

Length 244 m; draft 13.6 m.

Type: Ship (hazmat cat A). MMSI: 237677000.

Date/timePositionNaut miles runAvg speedWind from/ knotsBaromVisibWave heightAir tempDewpointWater temp
2018-Apr-24 05:21N 28°57' W 015°14'410.4
2018-Apr-24 05:00N 28°54' W 015°17'510.4
2018-Apr-24 04:29N 28°50' W 015°22'510.3
2018-Apr-24 04:00N 28°47' W 015°26'510.3
2018-Apr-24 03:30N 28°43' W 015°30'510.3
2018-Apr-24 03:00N 28°40' W 015°34'510.3
2018-Apr-24 02:30N 28°36' W 015°39'510.3
2018-Apr-24 02:00N 28°32' W 015°43'510.3
2018-Apr-24 01:30N 28°29' W 015°46'510.2
2018-Apr-24 01:00N 28°25' W 015°50'510.1
2018-Apr-24 00:30N 28°21' W 015°54'510.1
2018-Apr-23 23:58N 28°17' W 015°58'  
2018-Apr-19 17:11N 10°49' W 018°33'211.3
2018-Apr-19 17:00N 10°47' W 018°32'19711.0
2018-Apr-18 23:03N 07°54' W 016°57'111.4
2018-Apr-18 22:59N 07°53' W 016°57'2311.2
2018-Apr-18 20:57N 07°36' W 016°42'711.0
2018-Apr-18 20:19N 07°30' W 016°38'511.4
2018-Apr-18 19:54N 07°27' W 016°34'411.3
2018-Apr-18 19:30N 07°23' W 016°32'611.4
2018-Apr-18 19:00N 07°19' W 016°28'611.3
2018-Apr-18 18:30N 07°15' W 016°24'611.2
2018-Apr-18 18:00N 07°10' W 016°20'611.1
2018-Apr-18 17:27N 07°06' W 016°16'511.2
2018-Apr-18 17:00N 07°02' W 016°13'611.3
2018-Apr-18 16:30N 06°57' W 016°10'611.3
2018-Apr-18 16:00N 06°53' W 016°06'611.4
2018-Apr-18 15:30N 06°49' W 016°02'611.2
2018-Apr-18 15:00N 06°44' W 015°59'611.1
2018-Apr-18 14:30N 06°40' W 015°55'611.1
2018-Apr-18 14:00N 06°36' W 015°51'510.9
2018-Apr-18 13:30N 06°32' W 015°48'511.0
2018-Apr-18 13:00N 06°28' W 015°44'611.1
2018-Apr-18 12:30N 06°23' W 015°40'511.0
2018-Apr-18 12:00N 06°19' W 015°37'611.0
2018-Apr-18 11:29N 06°15' W 015°33'510.9
2018-Apr-18 11:00N 06°11' W 015°29'610.9
2018-Apr-18 10:27N 06°07' W 015°25'511.0
2018-Apr-18 10:00N 06°04' W 015°22'1010.9
2018-Apr-18 09:07N 05°57' W 015°15'311.1
2018-Apr-18 08:53N 05°55' W 015°13'  

Dump ship's entire track history